Main page
METAR-TAF:

METAR-TAF

Airports :

Mataveri International Airport

Easter Island, Chile

latitude: 27-09S, longitude: 109-25W, elevation: 51 m

Current weather observation

The report was made 46 minutes ago, at 06:00 UTC
Wind 6 kt from the East
Temperature 22°C
Humidity 78%
Pressure 1021 hPa
Visibility 10 km or more
Few clouds at a height of 2000 ft

METAR: SCIP 080600Z 10006KT 9999 FEW020 22/18 Q1021 NOSIG

Time: 01:46 (06:46 UTC)

Forecast

The report was made 1 hour and 56 minutes ago, at 04:50 UTC
Forecast valid from 08 at 06 UTC to 09 at 06 UTC
Wind 15 kt from the South/Southeast
Visibility 10 km or more
Scattered clouds at a height of 2500 ft
Temporary
from 08 at 06 UTC to 08 at 12 UTC
Wind 5 kt from the South/Southeast
Visibility: 5000 m
Broken clouds at a height of 1200 ft
Broken clouds at a height of 2000 ft
light rain showers

TAF: SCIP 080450Z 0806/0906 15015KT 9999 SCT025 TX26/0820Z TN20/0810Z TEMPO 0806/0812 15005KT 5000 -SHRA BKN012 BKN020

Weather observations and forecasts of more than 4000 airports (METAR and TAF reports).

The available stations are represented by yellow and red dots on the map.

Hover mouse over dot to see the name of the station.

Then click to see weather observations and forecasts.

To change the map : click on the green buttons with a black cross to zoom in, on the green button with a dash to zoom out, or on the green arrows for adjacent maps.


METAR-TAF: